Aérodrome :
LOGIN :

S'inscrire | Disclaimer

   EN    FR    IT 

 










Légende :    VFR   VFR Marginal   IFR   IFR Intensif   IFR Très Intensif
Visi : 
Plafond : 
>= 8 km
>= 3000ft
5 à 8 km
1000 à 3000 ft
1500m à 5 km
500 à 1000 ft
800 à 1500m
200 à 500 ft
< 800m
< 200 ft
Symboles :   Orages  Brouillard  Fortes neiges  Fortes précipitations  Vent > 20 kt
SIGMETs :   Divers  Orages  Givrage  Turbulence  Onde Orograph.  Cendres Volcan.






- Altitude de l'aérodrome : 584 ft


LFPV - Villacoublay Vélizy

DERNIER METAR :
  • 150800Z AUTO 24007KT 9999 FEW028 SCT230 BKN250 08/06 Q1003 NOSIG

METARs EXPIRÉS :
  • 150730Z AUTO 26010KT CAVOK 08/05 Q1002 NOSIG
  • 150700Z AUTO 25010KT CAVOK 08/06 Q1002 NOSIG
  • 150630Z AUTO 25010KT CAVOK 08/06 Q1001 NOSIG
  • 150600Z AUTO 25010KT 220V280 9999 FEW017 09/07 Q1001 NOSIG
  • 150530Z AUTO 24011KT 9999 FEW017 SCT036 BKN084 09/07 Q1000 NOSIG

TAF TAF LFPV
Valide du 14 à 21h jusqu'au 15 à 21h UTC


142000Z 1421/1521 20007KT CAVOK
BECMG 1421/1422 22015G25KT BKN008
TEMPO 1421/1423 3000 -RA
TEMPO 1423/1504 22020G35KT
BECMG 1500/1502 BKN016
TEMPO 1500/1505 BKN008
BECMG 1509/1511 22010KT



MET'MAP, la Météo Aéronautique d'un coup d'oeil ! - Copyright ORBIFLY Décembre 2007 - Disclaimer

ORBIFLY MET'MAP TEAM :

Programmation & Développement : Alexandra Zaïnal
Sur une idée originale de : Baudouin d'Aumeries
Assistance à la programmation : Marc-Olivier Méhu
Soutien technique & logistique : Manuel Goepfert

Contact : metmap@orbifly.com




SOURCES & CREDITS :

   NOAA